createdAt,value
2023-02-13T00:00:31.980Z,94.90
2023-02-13T00:02:58.846Z,94.90
2023-02-13T00:05:25.737Z,95.00
2023-02-13T00:07:52.475Z,94.90
2023-02-13T00:10:19.401Z,94.80
2023-02-13T00:12:46.342Z,94.70
2023-02-13T00:15:13.216Z,94.90
2023-02-13T00:17:40.308Z,94.80
2023-02-13T00:20:07.861Z,94.50
2023-02-13T00:22:38.800Z,94.70
2023-02-13T00:25:07.371Z,94.90
2023-02-13T00:27:34.530Z,95.10
2023-02-13T00:30:02.085Z,95.00
2023-02-13T00:32:29.034Z,95.00
2023-02-13T00:34:56.579Z,95.10
2023-02-13T00:37:23.384Z,94.70
2023-02-13T00:39:52.306Z,94.70
2023-02-13T00:42:20.444Z,94.70
2023-02-13T00:44:47.122Z,94.80
2023-02-13T00:47:15.023Z,94.70
2023-02-13T00:49:41.906Z,94.70
2023-02-13T00:52:08.678Z,94.70
2023-02-13T00:54:35.534Z,94.70
2023-02-13T00:57:02.707Z,94.70
2023-02-13T00:59:29.603Z,94.50
2023-02-13T01:01:56.504Z,94.40
2023-02-13T01:04:23.423Z,94.40
2023-02-13T01:06:50.246Z,94.40
2023-02-13T01:09:17.154Z,94.70
2023-02-13T01:11:43.947Z,94.30
2023-02-13T01:14:10.701Z,94.20
2023-02-13T01:16:37.524Z,94.20
2023-02-13T01:19:04.806Z,94.20
2023-02-13T01:21:31.583Z,94.10
2023-02-13T01:23:58.400Z,94.10
2023-02-13T01:26:25.270Z,94.10
2023-02-13T01:28:54.618Z,94.40
2023-02-13T01:31:22.381Z,94.60
2023-02-13T01:33:51.138Z,94.80
2023-02-13T01:36:21.792Z,94.90
2023-02-13T01:38:48.704Z,94.90
2023-02-13T01:41:15.728Z,94.90
2023-02-13T01:43:47.015Z,95.10
2023-02-13T01:46:19.149Z,95.30
2023-02-13T01:48:48.291Z,95.30
2023-02-13T01:51:23.097Z,95.30
2023-02-13T01:53:56.031Z,95.20
2023-02-13T01:56:54.448Z,94.40
2023-02-13T01:59:31.132Z,95.10
2023-02-13T02:01:59.353Z,95.80
2023-02-13T02:04:30.211Z,96.20
2023-02-13T02:07:03.014Z,96.20
2023-02-13T02:09:35.739Z,96.20
2023-02-13T02:12:34.054Z,95.80
2023-02-13T02:15:03.328Z,95.50
2023-02-13T02:17:32.262Z,95.30
2023-02-13T02:19:59.540Z,95.40
2023-02-13T02:22:39.815Z,94.90
2023-02-13T02:25:23.434Z,94.70
2023-02-13T02:28:28.448Z,94.50
2023-02-13T02:31:13.162Z,94.50
2023-02-13T02:34:15.443Z,94.50
2023-02-13T02:36:51.420Z,94.40
2023-02-13T02:39:34.234Z,94.40
2023-02-13T02:42:29.630Z,94.40
2023-02-13T02:45:12.134Z,94.40
2023-02-13T02:48:29.399Z,94.40
2023-02-13T02:51:07.523Z,94.50
2023-02-13T02:54:29.704Z,94.50
2023-02-13T02:57:03.645Z,94.00
2023-02-13T02:59:51.485Z,94.40
2023-02-13T03:02:47.781Z,94.60
2023-02-13T03:05:45.746Z,94.90
2023-02-13T03:08:13.253Z,95.30
2023-02-13T03:10:59.093Z,95.80
2023-02-13T03:13:48.248Z,96.40
2023-02-13T03:16:39.780Z,96.50
2023-02-13T03:19:36.198Z,96.50
2023-02-13T03:22:19.135Z,96.50
2023-02-13T03:25:34.357Z,96.10
2023-02-13T03:28:56.933Z,96.20
2023-02-13T03:31:47.645Z,95.90
2023-02-13T03:34:19.360Z,95.60
2023-02-13T03:37:22.018Z,95.20
2023-02-13T03:40:10.342Z,94.80
2023-02-13T03:43:03.381Z,94.60
2023-02-13T03:45:53.941Z,94.30
2023-02-13T03:48:45.175Z,94.20
2023-02-13T03:51:21.357Z,94.20
2023-02-13T03:53:53.642Z,94.30
2023-02-13T03:56:40.738Z,94.20
2023-02-13T03:59:18.154Z,94.30
2023-02-13T04:01:53.464Z,94.30
2023-02-13T04:04:36.362Z,94.40
2023-02-13T04:07:12.079Z,94.40
2023-02-13T04:09:42.649Z,94.60
2023-02-13T04:12:32.369Z,94.80
2023-02-13T04:15:15.117Z,95.00
2023-02-13T04:18:15.365Z,95.10
2023-02-13T04:20:42.330Z,95.10
2023-02-13T04:23:12.046Z,95.20
2023-02-13T04:25:41.706Z,95.50
2023-02-13T04:28:09.064Z,95.40
2023-02-13T04:30:36.003Z,95.40
2023-02-13T04:33:03.107Z,95.50
2023-02-13T04:35:30.069Z,95.70
2023-02-13T04:37:56.973Z,95.80
2023-02-13T04:40:23.776Z,95.80
2023-02-13T04:42:50.683Z,95.80
2023-02-13T04:45:17.792Z,95.90
2023-02-13T04:47:51.215Z,96.00
2023-02-13T04:50:18.413Z,95.90
2023-02-13T04:52:45.261Z,96.20
2023-02-13T04:55:12.496Z,96.50
2023-02-13T04:57:39.749Z,96.60
2023-02-13T05:00:07.966Z,96.90
2023-02-13T05:02:34.768Z,97.00
2023-02-13T05:05:01.635Z,96.80
2023-02-13T05:07:28.541Z,97.00
2023-02-13T05:09:55.658Z,96.80
2023-02-13T05:12:22.533Z,96.60
2023-02-13T05:14:49.358Z,96.50
2023-02-13T05:17:16.203Z,96.10
2023-02-13T05:19:43.110Z,95.80
2023-02-13T05:22:29.709Z,95.60
2023-02-13T05:24:56.453Z,95.40
2023-02-13T05:27:23.342Z,95.10
2023-02-13T05:29:50.273Z,94.90
2023-02-13T05:32:17.071Z,94.80
2023-02-13T05:34:43.945Z,93.80
2023-02-13T05:37:10.838Z,93.40
2023-02-13T05:39:37.710Z,93.70
2023-02-13T05:42:05.013Z,94.00
2023-02-13T05:44:32.025Z,93.90
2023-02-13T05:46:58.825Z,94.00
2023-02-13T05:49:25.787Z,93.80
2023-02-13T05:51:52.544Z,93.80
2023-02-13T05:54:19.464Z,93.80
2023-02-13T05:56:47.032Z,93.90
2023-02-13T05:59:14.399Z,93.90
2023-02-13T06:01:41.232Z,93.90
2023-02-13T06:04:08.188Z,94.00
2023-02-13T06:06:35.382Z,94.10
2023-02-13T06:09:02.173Z,94.30
2023-02-13T06:11:29.053Z,94.20
2023-02-13T06:13:56.058Z,94.50
2023-02-13T06:16:22.934Z,94.70
2023-02-13T06:18:49.849Z,94.80
2023-02-13T06:21:16.753Z,95.00
2023-02-13T06:23:43.877Z,95.10
2023-02-13T06:26:10.823Z,94.90
2023-02-13T06:28:37.723Z,94.90
2023-02-13T06:31:04.981Z,95.00
2023-02-13T06:33:32.037Z,95.00
2023-02-13T06:35:58.840Z,95.00
2023-02-13T06:38:25.745Z,94.80
2023-02-13T06:40:52.633Z,94.60
2023-02-13T06:43:19.598Z,94.50
2023-02-13T06:45:47.315Z,94.30
2023-02-13T06:48:14.750Z,94.20
2023-02-13T06:50:41.875Z,94.20
2023-02-13T06:53:08.756Z,94.30
2023-02-13T06:55:36.299Z,94.40
2023-02-13T06:58:03.129Z,94.60
2023-02-13T07:00:30.118Z,94.80
2023-02-13T07:03:02.899Z,95.00
2023-02-13T07:05:30.268Z,95.20
2023-02-13T07:07:57.072Z,95.10
2023-02-13T07:10:24.331Z,95.00
2023-02-13T07:13:05.016Z,95.00
2023-02-13T07:15:36.171Z,95.30
2023-02-13T07:18:04.817Z,94.80
2023-02-13T07:20:32.038Z,95.20
2023-02-13T07:23:03.931Z,95.70
2023-02-13T07:25:31.646Z,95.90
2023-02-13T07:28:03.908Z,96.60
2023-02-13T07:30:32.313Z,96.70
2023-02-13T07:33:04.192Z,96.70
2023-02-13T07:35:31.482Z,96.60
2023-02-13T07:37:59.326Z,96.70
2023-02-13T07:40:26.317Z,96.40
2023-02-13T07:42:53.402Z,96.30
2023-02-13T07:45:20.167Z,96.10
2023-02-13T07:47:46.962Z,96.20
2023-02-13T07:50:14.000Z,96.20
2023-02-13T07:52:40.873Z,96.10
2023-02-13T07:55:08.334Z,96.00
2023-02-13T07:57:35.196Z,95.90
2023-02-13T08:00:02.218Z,95.30
2023-02-13T08:02:38.604Z,95.00
2023-02-13T08:05:05.911Z,95.00
2023-02-13T08:07:32.833Z,95.00
2023-02-13T08:10:18.380Z,94.90
2023-02-13T08:12:46.048Z,95.20
2023-02-13T08:15:14.434Z,95.30
2023-02-13T08:17:41.647Z,95.30
2023-02-13T08:20:09.213Z,95.40
2023-02-13T08:22:39.729Z,95.30
2023-02-13T08:25:07.491Z,95.30
2023-02-13T08:27:34.427Z,95.50
2023-02-13T08:30:03.158Z,95.60
2023-02-13T08:32:30.172Z,95.40
2023-02-13T08:34:56.988Z,95.60
2023-02-13T08:37:24.484Z,95.30
2023-02-13T08:39:51.553Z,94.90
2023-02-13T08:42:18.334Z,95.10
2023-02-13T08:44:45.241Z,95.30
2023-02-13T08:47:12.207Z,95.40
2023-02-13T08:49:38.974Z,95.40
2023-02-13T08:52:05.887Z,95.50
2023-02-13T08:54:35.468Z,95.30
2023-02-13T08:57:02.310Z,95.30
2023-02-13T08:59:29.058Z,95.10
2023-02-13T09:01:57.346Z,95.10
2023-02-13T09:04:24.158Z,95.10
2023-02-13T09:06:51.409Z,95.00
2023-02-13T09:09:18.522Z,94.90
2023-02-13T09:11:45.463Z,94.60
2023-02-13T09:14:12.367Z,94.50
2023-02-13T09:16:39.246Z,93.90
2023-02-13T09:19:06.040Z,93.50
2023-02-13T09:21:32.860Z,92.80
2023-02-13T09:23:59.799Z,92.60
2023-02-13T09:26:26.613Z,92.70
2023-02-13T09:28:53.514Z,92.50
2023-02-13T09:31:21.357Z,91.90
2023-02-13T09:33:48.912Z,91.60
2023-02-13T09:36:21.834Z,91.70
2023-02-13T09:38:53.026Z,92.20
2023-02-13T09:41:23.893Z,92.10
2023-02-13T09:44:03.057Z,91.90
2023-02-13T09:46:32.935Z,91.80
2023-02-13T09:49:05.114Z,91.50
2023-02-13T09:51:31.995Z,91.30
2023-02-13T09:54:02.713Z,91.10
2023-02-13T09:56:54.924Z,90.20
2023-02-13T10:00:01.840Z,90.00
2023-02-13T10:02:58.033Z,89.30
2023-02-13T10:05:30.949Z,88.30
2023-02-13T10:08:04.884Z,86.80
2023-02-13T10:10:47.064Z,85.80
2023-02-13T10:13:36.854Z,85.10
2023-02-13T10:16:35.870Z,84.10
2023-02-13T10:19:41.858Z,82.70
2023-02-13T10:22:19.013Z,82.10
2023-02-13T10:25:00.428Z,81.60
2023-02-13T10:27:43.426Z,81.00
2023-02-13T10:30:32.361Z,80.20
2023-02-13T10:33:19.234Z,79.30
2023-02-13T10:35:48.082Z,78.50
2023-02-13T10:38:20.457Z,78.50
2023-02-13T10:41:14.194Z,77.80
2023-02-13T10:44:17.458Z,77.00
2023-02-13T10:46:57.612Z,76.00
2023-02-13T10:50:11.896Z,75.20
2023-02-13T10:52:44.280Z,75.80
2023-02-13T10:55:19.375Z,74.20
2023-02-13T10:58:05.046Z,73.70
2023-02-13T11:00:36.090Z,72.10
2023-02-13T11:03:03.663Z,72.80
2023-02-13T11:05:33.680Z,71.00
2023-02-13T11:08:02.113Z,71.20
2023-02-13T11:10:29.285Z,69.60
2023-02-13T11:12:56.225Z,69.50
2023-02-13T11:15:31.988Z,68.70
2023-02-13T11:18:14.787Z,68.90
2023-02-13T11:20:48.139Z,68.10
2023-02-13T11:23:37.387Z,67.30
2023-02-13T11:26:21.884Z,66.90
2023-02-13T11:28:56.211Z,66.40
2023-02-13T11:31:29.818Z,65.80
2023-02-13T11:33:59.087Z,65.80
2023-02-13T11:36:33.092Z,67.00
2023-02-13T11:39:17.805Z,66.30
2023-02-13T11:41:46.669Z,65.90
2023-02-13T11:44:27.134Z,66.20
2023-02-13T11:46:56.807Z,65.50
2023-02-13T11:49:28.893Z,66.20
2023-02-13T11:51:58.025Z,66.50
2023-02-13T11:54:27.603Z,65.60
2023-02-13T11:57:22.554Z,66.60
2023-02-13T11:59:52.438Z,66.20
2023-02-13T12:02:21.088Z,67.20
2023-02-13T12:04:51.616Z,65.20
2023-02-13T12:07:23.260Z,66.00
2023-02-13T12:10:15.057Z,64.90
2023-02-13T12:13:04.478Z,64.00
2023-02-13T12:15:34.086Z,64.10
2023-02-13T12:18:15.964Z,63.40
2023-02-13T12:21:01.148Z,65.30
2023-02-13T12:23:46.848Z,64.20
2023-02-13T12:26:16.503Z,63.50
2023-02-13T12:29:20.764Z,63.50
2023-02-13T12:32:17.676Z,64.70
2023-02-13T12:35:12.251Z,63.40
2023-02-13T12:37:57.577Z,63.20
2023-02-13T12:40:47.195Z,63.40
2023-02-13T12:43:40.966Z,64.30
2023-02-13T12:46:31.017Z,62.80
2023-02-13T12:49:43.670Z,63.60
2023-02-13T12:52:28.038Z,63.10
2023-02-13T12:55:37.711Z,60.80
2023-02-13T12:58:32.626Z,60.40
2023-02-13T13:01:05.339Z,60.30
2023-02-13T13:03:52.535Z,59.50
2023-02-13T13:06:44.059Z,59.40
2023-02-13T13:09:17.144Z,59.50
2023-02-13T13:11:50.198Z,59.70
2023-02-13T13:14:37.314Z,58.70
2023-02-13T13:17:39.762Z,58.90
2023-02-13T13:20:37.239Z,59.80
2023-02-13T13:23:24.883Z,60.00
2023-02-13T13:25:59.594Z,59.50
2023-02-13T13:28:33.654Z,59.40
2023-02-13T13:31:02.951Z,58.60
2023-02-13T13:33:30.972Z,59.00
2023-02-13T13:36:00.837Z,59.20
2023-02-13T13:38:42.748Z,58.20
2023-02-13T13:41:18.908Z,58.20
2023-02-13T13:43:54.676Z,59.00
2023-02-13T13:46:31.776Z,58.90
2023-02-13T13:49:43.932Z,59.00
2023-02-13T13:52:20.662Z,59.30
2023-02-13T13:54:51.583Z,59.50
2023-02-13T13:57:38.239Z,58.50
2023-02-13T14:00:14.203Z,58.00
2023-02-13T14:02:50.505Z,59.80
2023-02-13T14:05:24.892Z,59.80
2023-02-13T14:07:56.059Z,60.60
2023-02-13T14:10:25.702Z,62.10
2023-02-13T14:12:58.752Z,62.40
2023-02-13T14:15:34.916Z,63.40
2023-02-13T14:18:13.715Z,62.80
2023-02-13T14:20:53.289Z,61.90
2023-02-13T14:23:35.507Z,62.50
2023-02-13T14:26:11.566Z,64.10
2023-02-13T14:28:41.086Z,64.70
2023-02-13T14:31:16.989Z,63.30
2023-02-13T14:33:44.047Z,62.80
2023-02-13T14:36:23.099Z,63.10
2023-02-13T14:38:58.457Z,64.20
2023-02-13T14:41:43.239Z,64.00
2023-02-13T14:44:33.824Z,64.60
2023-02-13T14:47:04.851Z,64.20
2023-02-13T14:49:38.256Z,63.90
2023-02-13T14:52:17.306Z,64.20
2023-02-13T14:54:51.416Z,64.30
2023-02-13T14:57:29.742Z,63.40
2023-02-13T15:00:07.379Z,62.70
2023-02-13T15:02:41.462Z,61.60
2023-02-13T15:05:20.071Z,63.00
2023-02-13T15:07:52.444Z,63.50
2023-02-13T15:10:44.133Z,63.50
2023-02-13T15:13:35.046Z,61.90
2023-02-13T15:16:09.907Z,63.20
2023-02-13T15:18:52.251Z,63.80
2023-02-13T15:21:22.613Z,63.70
2023-02-13T15:23:55.573Z,63.70
2023-02-13T15:26:26.409Z,62.70
2023-02-13T15:29:01.783Z,64.30
2023-02-13T15:31:35.588Z,63.30
2023-02-13T15:34:02.731Z,62.20
2023-02-13T15:36:41.107Z,61.60
2023-02-13T15:39:15.686Z,61.00
2023-02-13T15:41:52.217Z,61.30
2023-02-13T15:44:23.690Z,61.30
2023-02-13T15:46:52.614Z,61.70
2023-02-13T15:49:22.597Z,62.10
2023-02-13T15:51:50.678Z,62.30
2023-02-13T15:54:25.275Z,62.40
2023-02-13T15:56:54.618Z,62.60
2023-02-13T15:59:22.272Z,63.00
2023-02-13T16:01:51.750Z,63.60
2023-02-13T16:04:19.733Z,63.90
2023-02-13T16:06:49.050Z,64.30
2023-02-13T16:09:24.367Z,64.40
2023-02-13T16:11:51.856Z,64.90
2023-02-13T16:14:26.899Z,64.80
2023-02-13T16:17:00.570Z,64.80
2023-02-13T16:19:39.531Z,65.30
2023-02-13T16:22:14.624Z,65.70
2023-02-13T16:24:47.331Z,67.00
2023-02-13T16:27:16.484Z,66.90
2023-02-13T16:29:54.696Z,67.40
2023-02-13T16:32:29.491Z,67.30
2023-02-13T16:34:57.261Z,67.60
2023-02-13T16:37:34.236Z,67.70
2023-02-13T16:40:38.582Z,67.40
2023-02-13T16:43:33.612Z,67.70
2023-02-13T16:46:15.718Z,68.00
2023-02-13T16:48:57.573Z,69.20
2023-02-13T16:51:30.216Z,69.60
2023-02-13T16:54:02.173Z,70.20
2023-02-13T16:56:45.741Z,70.70
2023-02-13T16:59:24.506Z,71.20
2023-02-13T17:02:23.684Z,71.60
2023-02-13T17:05:22.581Z,71.20
2023-02-13T17:07:51.971Z,72.10
2023-02-13T17:10:23.336Z,71.90
2023-02-13T17:12:51.731Z,71.90
2023-02-13T17:15:21.750Z,71.80
2023-02-13T17:17:50.677Z,71.80
2023-02-13T17:20:26.836Z,71.30
2023-02-13T17:22:56.105Z,71.50
2023-02-13T17:25:26.371Z,71.60
2023-02-13T17:27:56.602Z,72.30
2023-02-13T17:30:27.201Z,71.90
2023-02-13T17:32:59.123Z,71.80
2023-02-13T17:35:26.207Z,71.80
2023-02-13T17:37:53.054Z,71.80
2023-02-13T17:40:22.295Z,72.40
2023-02-13T17:42:54.560Z,74.10
2023-02-13T17:45:24.434Z,73.70
2023-02-13T17:47:51.716Z,73.50
2023-02-13T17:50:19.352Z,73.80
2023-02-13T17:52:49.105Z,74.00
2023-02-13T17:55:22.385Z,74.50
2023-02-13T17:57:49.511Z,75.30
2023-02-13T18:00:17.810Z,76.00
2023-02-13T18:02:44.574Z,77.30
2023-02-13T18:05:11.801Z,77.60
2023-02-13T18:07:40.872Z,76.50
2023-02-13T18:10:19.365Z,76.70
2023-02-13T18:12:48.256Z,76.80
2023-02-13T18:15:15.384Z,77.30
2023-02-13T18:17:42.698Z,77.20
2023-02-13T18:20:13.201Z,77.50
2023-02-13T18:22:40.406Z,77.70
2023-02-13T18:25:08.144Z,78.80
2023-02-13T18:27:34.976Z,79.80
2023-02-13T18:30:02.077Z,79.80
2023-02-13T18:32:29.215Z,79.80
2023-02-13T18:34:56.087Z,80.10
2023-02-13T18:37:22.957Z,79.80
2023-02-13T18:39:49.785Z,79.90
2023-02-13T18:42:18.733Z,79.90
2023-02-13T18:44:45.533Z,80.00
2023-02-13T18:47:12.502Z,80.50
2023-02-13T18:49:39.285Z,80.70
2023-02-13T18:52:06.414Z,81.10
2023-02-13T18:54:34.465Z,81.80
2023-02-13T18:57:01.244Z,82.00
2023-02-13T18:59:28.227Z,82.20
2023-02-13T19:01:55.095Z,83.00
2023-02-13T19:04:22.033Z,83.60
2023-02-13T19:06:49.127Z,83.60
2023-02-13T19:09:16.022Z,84.50
2023-02-13T19:11:44.396Z,85.20
2023-02-13T19:14:13.685Z,86.80
2023-02-13T19:16:40.926Z,87.20
2023-02-13T19:19:08.636Z,88.50
2023-02-13T19:21:37.636Z,89.70
2023-02-13T19:24:08.636Z,90.30
2023-02-13T19:26:36.208Z,90.70
2023-02-13T19:29:04.147Z,91.00
2023-02-13T19:31:32.796Z,91.30
2023-02-13T19:34:00.744Z,91.30
2023-02-13T19:36:29.779Z,91.60
2023-02-13T19:38:59.249Z,91.80
2023-02-13T19:41:26.696Z,92.10
2023-02-13T19:43:53.730Z,92.40
2023-02-13T19:46:26.005Z,92.40
2023-02-13T19:48:53.523Z,92.60
2023-02-13T19:51:24.247Z,92.70
2023-02-13T19:54:01.485Z,92.70
2023-02-13T19:56:30.118Z,93.00
2023-02-13T19:58:57.385Z,93.20
2023-02-13T20:01:26.027Z,93.60
2023-02-13T20:03:53.432Z,93.20
2023-02-13T20:06:31.121Z,93.40
2023-02-13T20:09:01.835Z,93.70
2023-02-13T20:11:29.178Z,94.20
2023-02-13T20:14:00.615Z,94.20
2023-02-13T20:16:32.699Z,94.40
2023-02-13T20:19:01.837Z,94.10
2023-02-13T20:21:28.626Z,94.20
2023-02-13T20:23:55.377Z,94.40
2023-02-13T20:26:22.634Z,94.60
2023-02-13T20:28:49.980Z,94.50
2023-02-13T20:31:21.481Z,94.70
2023-02-13T20:33:50.389Z,94.80
2023-02-13T20:36:21.902Z,95.00
2023-02-13T20:38:50.623Z,94.80
2023-02-13T20:41:22.761Z,95.10
2023-02-13T20:43:50.201Z,95.00
2023-02-13T20:46:17.107Z,95.10
2023-02-13T20:48:46.304Z,95.30
2023-02-13T20:51:15.476Z,95.60
2023-02-13T20:53:43.370Z,96.00
2023-02-13T20:56:13.373Z,96.00
2023-02-13T20:58:41.930Z,95.80
2023-02-13T21:01:18.326Z,95.90
2023-02-13T21:03:48.085Z,95.90
2023-02-13T21:06:14.963Z,95.80
2023-02-13T21:08:43.701Z,95.80
2023-02-13T21:11:10.676Z,95.90
2023-02-13T21:13:39.189Z,96.10
2023-02-13T21:16:12.511Z,96.20
2023-02-13T21:18:40.651Z,96.50
2023-02-13T21:21:10.351Z,96.90
2023-02-13T21:23:38.262Z,96.80
2023-02-13T21:26:11.083Z,96.10
2023-02-13T21:28:39.063Z,96.10
2023-02-13T21:31:18.275Z,96.10
2023-02-13T21:33:45.345Z,95.80
2023-02-13T21:36:13.121Z,95.80
2023-02-13T21:38:41.099Z,95.90
2023-02-13T21:41:13.356Z,96.20
2023-02-13T21:43:42.185Z,96.30
2023-02-13T21:46:10.716Z,96.50
2023-02-13T21:48:38.957Z,96.60
2023-02-13T21:51:17.543Z,96.80
2023-02-13T21:53:45.554Z,97.10
2023-02-13T21:56:17.777Z,97.20
2023-02-13T21:58:45.258Z,97.30
2023-02-13T22:01:23.856Z,97.20
2023-02-13T22:03:52.750Z,97.20
2023-02-13T22:06:21.023Z,97.30
2023-02-13T22:08:48.481Z,97.50
2023-02-13T22:11:17.371Z,97.70
2023-02-13T22:13:44.203Z,98.10
2023-02-13T22:16:14.169Z,98.40
2023-02-13T22:18:45.182Z,97.80
2023-02-13T22:21:14.354Z,97.50
2023-02-13T22:23:42.454Z,97.50
2023-02-13T22:26:14.645Z,97.80
2023-02-13T22:28:41.816Z,97.70
2023-02-13T22:31:10.095Z,97.50
2023-02-13T22:33:37.358Z,97.40
2023-02-13T22:36:04.851Z,97.50
2023-02-13T22:38:33.317Z,97.50
2023-02-13T22:41:15.306Z,97.60
2023-02-13T22:43:42.551Z,97.70
2023-02-13T22:46:13.291Z,97.80
2023-02-13T22:48:41.632Z,97.90
2023-02-13T22:51:10.791Z,98.10
2023-02-13T22:53:38.242Z,98.10
2023-02-13T22:56:06.909Z,97.80
2023-02-13T22:58:33.779Z,97.70
2023-02-13T23:01:01.048Z,97.50
2023-02-13T23:03:31.663Z,97.50
2023-02-13T23:05:58.453Z,97.80
2023-02-13T23:08:25.265Z,98.30
2023-02-13T23:11:10.975Z,97.80
2023-02-13T23:13:37.837Z,97.60
2023-02-13T23:16:13.365Z,97.70
2023-02-13T23:18:40.726Z,98.00
2023-02-13T23:21:08.205Z,98.10
2023-02-13T23:23:36.385Z,98.10
2023-02-13T23:26:04.682Z,98.30
2023-02-13T23:28:31.513Z,98.20
2023-02-13T23:30:58.896Z,98.20
2023-02-13T23:33:26.235Z,98.80
2023-02-13T23:35:53.076Z,99.30
2023-02-13T23:38:20.484Z,98.60
2023-02-13T23:40:47.310Z,98.20
2023-02-13T23:43:14.286Z,98.00
2023-02-13T23:45:41.228Z,98.10
2023-02-13T23:48:10.276Z,98.30
2023-02-13T23:50:37.149Z,98.30
2023-02-13T23:53:03.980Z,98.20
2023-02-13T23:55:30.763Z,98.30
2023-02-13T23:57:57.513Z,98.40
